createdAt,value
2024-04-24T00:00:02.040Z,996.99
2024-04-24T00:05:01.665Z,996.86
2024-04-24T00:10:01.823Z,996.79
2024-04-24T00:15:02.203Z,996.69
2024-04-24T00:20:01.350Z,996.59
2024-04-24T00:25:01.232Z,996.55
2024-04-24T00:30:01.379Z,996.51
2024-04-24T00:35:01.484Z,996.44
2024-04-24T00:40:02.025Z,996.36
2024-04-24T00:45:01.264Z,996.3
2024-04-24T00:50:01.432Z,996.26
2024-04-24T00:55:02.137Z,996.25
2024-04-24T01:00:01.380Z,996.06
2024-04-24T01:05:01.990Z,996.05
2024-04-24T01:10:01.487Z,996
2024-04-24T01:15:01.916Z,996
2024-04-24T01:20:01.399Z,995.95
2024-04-24T01:25:02.041Z,995.93
2024-04-24T01:30:01.872Z,995.93
2024-04-24T01:35:01.777Z,995.82
2024-04-24T01:40:01.852Z,995.8
2024-04-24T01:45:02.097Z,995.75
2024-04-24T01:50:01.341Z,995.75
2024-04-24T01:55:01.387Z,995.71
2024-04-24T02:00:01.401Z,995.68
2024-04-24T02:05:01.800Z,995.64
2024-04-24T02:10:01.850Z,995.56
2024-04-24T02:15:01.939Z,995.51
2024-04-24T02:20:02.240Z,995.43
2024-04-24T02:25:01.504Z,995.48
2024-04-24T02:30:01.414Z,995.42
2024-04-24T02:35:01.902Z,995.36
2024-04-24T02:40:02.118Z,995.3
2024-04-24T02:45:01.887Z,995.22
2024-04-24T02:50:01.446Z,995.19
2024-04-24T02:55:01.678Z,995.19
2024-04-24T03:00:02.099Z,995.21
2024-04-24T03:05:01.726Z,995.14
2024-04-24T03:10:02.088Z,995.07
2024-04-24T03:15:01.973Z,995.04
2024-04-24T03:20:01.395Z,994.98
2024-04-24T03:25:01.856Z,994.93
2024-04-24T03:30:01.703Z,994.9
2024-04-24T03:35:02.379Z,994.75
2024-04-24T03:40:01.641Z,994.63
2024-04-24T03:45:02.102Z,994.56
2024-04-24T03:50:01.910Z,994.57
2024-04-24T03:55:01.398Z,994.51
2024-04-24T04:00:01.753Z,994.54
2024-04-24T04:05:02.424Z,994.6
2024-04-24T04:10:01.886Z,994.55
2024-04-24T04:15:01.610Z,994.53
2024-04-24T04:20:01.688Z,994.42
2024-04-24T04:25:01.847Z,994.38
2024-04-24T04:30:01.247Z,994.44
2024-04-24T04:35:01.339Z,994.4
2024-04-24T04:40:02.204Z,994.35
2024-04-24T04:45:01.574Z,994.42
2024-04-24T04:50:01.533Z,994.38
2024-04-24T04:55:01.790Z,994.41
2024-04-24T05:00:01.710Z,994.33
2024-04-24T05:05:01.786Z,994.27
2024-04-24T05:10:01.944Z,994.24
2024-04-24T05:15:01.203Z,994.21
2024-04-24T05:20:01.335Z,994.22
2024-04-24T05:25:01.422Z,994.23
2024-04-24T05:30:01.520Z,994.21
2024-04-24T05:35:01.707Z,994.2
2024-04-24T05:40:01.859Z,994.24
2024-04-24T05:45:02.222Z,994.18
2024-04-24T05:50:01.284Z,994.14
2024-04-24T05:55:01.488Z,994.11
2024-04-24T06:00:01.791Z,994.08
2024-04-24T06:05:01.845Z,994.1
2024-04-24T06:10:01.704Z,994.1
2024-04-24T06:15:02.082Z,994.07
2024-04-24T06:20:01.808Z,994.05
2024-04-24T06:25:01.763Z,994.03
2024-04-24T06:30:01.929Z,993.98
2024-04-24T06:35:01.293Z,993.97
2024-04-24T06:40:02.322Z,993.96
2024-04-24T06:45:02.189Z,993.92
2024-04-24T06:50:02.306Z,993.86
2024-04-24T06:55:01.547Z,993.86
2024-04-24T07:00:01.551Z,993.8
2024-04-24T07:05:01.617Z,993.78
2024-04-24T07:10:01.732Z,993.79
2024-04-24T07:15:01.963Z,993.69
2024-04-24T07:20:01.587Z,993.69
2024-04-24T07:25:01.577Z,993.65
2024-04-24T07:30:01.747Z,993.69
2024-04-24T07:35:02.017Z,993.55
2024-04-24T07:40:02.098Z,993.56
2024-04-24T07:45:02.140Z,993.55
2024-04-24T07:50:01.752Z,993.5
2024-04-24T07:55:01.795Z,993.55
2024-04-24T08:00:01.803Z,993.54
2024-04-24T08:05:01.411Z,993.54
2024-04-24T08:10:01.534Z,993.63
2024-04-24T08:15:01.465Z,993.53
2024-04-24T08:20:02.111Z,993.53
2024-04-24T08:25:02.014Z,993.56
2024-04-24T08:30:02.084Z,993.45
2024-04-24T08:35:01.612Z,993.43
2024-04-24T08:40:01.522Z,993.55
2024-04-24T08:45:01.749Z,993.69
2024-04-24T08:50:02.408Z,993.54
2024-04-24T08:55:02.085Z,993.49
2024-04-24T09:00:02.199Z,993.43
2024-04-24T09:05:01.984Z,993.35
2024-04-24T09:10:01.990Z,993.31
2024-04-24T09:15:01.889Z,993.25
2024-04-24T09:20:01.422Z,993.18
2024-04-24T09:25:01.235Z,993.19
2024-04-24T09:30:01.514Z,993.15
2024-04-24T09:35:01.980Z,993.26
2024-04-24T09:40:01.918Z,993.17
2024-04-24T09:45:02.066Z,993.15
2024-04-24T09:50:01.522Z,993.08
2024-04-24T09:55:01.449Z,993.11
2024-04-24T10:00:01.515Z,993.14
2024-04-24T10:05:01.791Z,993
2024-04-24T10:10:01.700Z,992.99
2024-04-24T10:15:01.528Z,992.96
2024-04-24T10:20:08.726Z,992.79
2024-04-24T10:25:01.598Z,992.67
2024-04-24T10:30:01.638Z,992.56
2024-04-24T10:35:02.194Z,992.49
2024-04-24T10:40:02.212Z,992.57
2024-04-24T10:45:02.175Z,992.45
2024-04-24T10:50:01.879Z,992.42
2024-04-24T10:55:01.997Z,992.49
2024-04-24T11:00:02.029Z,992.51
2024-04-24T11:05:01.890Z,992.49
2024-04-24T11:10:01.356Z,992.42
2024-04-24T11:15:01.215Z,992.43
2024-04-24T11:20:01.528Z,992.45
2024-04-24T11:25:01.557Z,992.45
2024-04-24T11:30:01.819Z,992.29
2024-04-24T11:35:02.203Z,992.32
2024-04-24T11:40:02.197Z,992.28
2024-04-24T11:45:01.256Z,992.21
2024-04-24T11:50:01.823Z,992.16
2024-04-24T11:55:01.784Z,992.16
2024-04-24T12:00:01.990Z,992.1
2024-04-24T12:05:01.344Z,992.11
2024-04-24T12:10:01.402Z,992.11
2024-04-24T12:15:02.139Z,992.03
2024-04-24T12:20:02.911Z,992.13
2024-04-24T12:25:01.754Z,992.17
2024-04-24T12:30:01.407Z,992.07
2024-04-24T12:35:01.928Z,992.03
2024-04-24T12:40:02.012Z,992.01
2024-04-24T12:45:01.347Z,992
2024-04-24T12:50:01.569Z,992.02
2024-04-24T12:55:01.852Z,992.08
2024-04-24T13:00:01.800Z,992.12
2024-04-24T13:05:01.939Z,992.13
2024-04-24T13:10:01.895Z,992.02
2024-04-24T13:15:01.993Z,991.9
2024-04-24T13:20:01.381Z,991.73
2024-04-24T13:25:03.192Z,991.67
2024-04-24T13:30:01.595Z,991.6
2024-04-24T13:35:02.091Z,991.65
2024-04-24T13:40:02.167Z,991.74
2024-04-24T13:45:02.160Z,991.69
2024-04-24T13:50:01.761Z,991.55
2024-04-24T13:55:01.701Z,991.69
2024-04-24T14:00:02.097Z,991.63
2024-04-24T14:05:01.355Z,991.63
2024-04-24T14:10:01.274Z,991.65
2024-04-24T14:15:01.392Z,991.63
2024-04-24T14:20:01.817Z,991.62
2024-04-24T14:25:01.908Z,991.54
2024-04-24T14:30:02.025Z,991.52
2024-04-24T14:35:01.709Z,991.47
2024-04-24T14:40:01.946Z,991.46
2024-04-24T14:45:02.141Z,991.44
2024-04-24T14:50:01.669Z,991.79
2024-04-24T14:55:01.646Z,991.75
2024-04-24T15:00:01.512Z,991.73
2024-04-24T15:05:01.724Z,991.61
2024-04-24T15:10:01.934Z,991.52
2024-04-24T15:15:01.756Z,991.56
2024-04-24T15:20:02.155Z,991.61
2024-04-24T15:25:01.967Z,991.62
2024-04-24T15:30:02.181Z,991.57
2024-04-24T15:35:02.195Z,991.57
2024-04-24T15:40:02.137Z,991.57
2024-04-24T15:45:02.239Z,991.56
2024-04-24T15:50:01.584Z,991.54
2024-04-24T15:55:01.505Z,991.54
2024-04-24T16:00:01.475Z,991.61
2024-04-24T16:05:01.538Z,991.55
2024-04-24T16:10:01.563Z,991.54
2024-04-24T16:15:01.830Z,991.47
2024-04-24T16:20:01.934Z,991.5
2024-04-24T16:25:01.959Z,991.45
2024-04-24T16:30:02.039Z,991.47
2024-04-24T16:35:01.296Z,991.51
2024-04-24T16:40:02.341Z,991.39
2024-04-24T16:45:02.230Z,991.29
2024-04-24T16:50:01.353Z,991.27
2024-04-24T16:55:01.426Z,991.3
2024-04-24T17:00:01.471Z,991.29
2024-04-24T17:05:01.652Z,991.36
2024-04-24T17:10:01.772Z,991.29
2024-04-24T17:15:01.891Z,991.41
2024-04-24T17:20:02.249Z,991.52
2024-04-24T17:25:02.122Z,991.55
2024-04-24T17:30:01.296Z,991.55
2024-04-24T17:35:01.526Z,991.64
2024-04-24T17:40:01.305Z,991.66
2024-04-24T17:45:01.308Z,991.64
2024-04-24T17:50:01.334Z,991.63
2024-04-24T17:55:01.677Z,991.74
2024-04-24T18:00:01.703Z,991.75
2024-04-24T18:05:01.844Z,991.86
2024-04-24T18:10:01.849Z,991.83
2024-04-24T18:15:02.144Z,991.83
2024-04-24T18:20:02.202Z,991.86
2024-04-24T18:25:02.204Z,991.88
2024-04-24T18:30:02.123Z,991.91
2024-04-24T18:35:02.263Z,991.9
2024-04-24T18:40:01.272Z,992.02
2024-04-24T18:45:01.283Z,992.17
2024-04-24T18:50:01.643Z,992.09
2024-04-24T18:55:01.489Z,992.04
2024-04-24T19:00:01.579Z,992.08
2024-04-24T19:05:01.526Z,992.12
2024-04-24T19:10:01.638Z,992.22
2024-04-24T19:15:01.622Z,992.12
2024-04-24T19:20:01.636Z,992.25
2024-04-24T19:25:01.682Z,992.29
2024-04-24T19:30:01.851Z,992.28
2024-04-24T19:35:01.956Z,992.29
2024-04-24T19:40:02.136Z,992.28
2024-04-24T19:45:01.919Z,992.27
2024-04-24T19:50:02.026Z,992.28
2024-04-24T19:55:02.182Z,992.28
2024-04-24T20:00:01.217Z,992.23
2024-04-24T20:05:01.584Z,992.26
2024-04-24T20:10:01.423Z,992.31
2024-04-24T20:15:01.463Z,992.27
2024-04-24T20:20:02.075Z,992.26
2024-04-24T20:25:01.339Z,992.35
2024-04-24T20:30:01.786Z,992.44
2024-04-24T20:35:01.928Z,992.46
2024-04-24T20:40:01.415Z,992.48
2024-04-24T20:45:01.425Z,992.59
2024-04-24T20:50:01.790Z,992.62
2024-04-24T20:55:02.052Z,992.54
2024-04-24T21:00:02.157Z,992.53
2024-04-24T21:05:02.171Z,992.56
2024-04-24T21:10:01.301Z,992.55
2024-04-24T21:15:01.619Z,992.51
2024-04-24T21:20:01.456Z,992.53
2024-04-24T21:25:01.802Z,992.48
2024-04-24T21:30:01.380Z,992.46
2024-04-24T21:35:02.211Z,992.43
2024-04-24T21:40:01.790Z,992.43
2024-04-24T21:45:02.120Z,992.39
2024-04-24T21:50:01.257Z,992.4
2024-04-24T21:55:01.826Z,992.39
2024-04-24T22:00:01.990Z,992.42
2024-04-24T22:05:01.486Z,992.4
2024-04-24T22:10:02.073Z,992.4
2024-04-24T22:15:02.170Z,992.38
2024-04-24T22:20:01.624Z,992.38
2024-04-24T22:25:01.902Z,992.34
2024-04-24T22:30:02.268Z,992.37
2024-04-24T22:35:01.580Z,992.37
2024-04-24T22:40:01.813Z,992.41
2024-04-24T22:45:02.131Z,992.42
2024-04-24T22:50:02.028Z,992.36
2024-04-24T22:55:02.026Z,992.43
2024-04-24T23:00:01.289Z,992.4
2024-04-24T23:05:01.888Z,992.34
2024-04-24T23:10:02.120Z,992.34
2024-04-24T23:25:02.142Z,992.29
2024-04-24T23:30:01.239Z,992.35
2024-04-24T23:35:01.339Z,992.29
2024-04-24T23:40:01.676Z,992.29
2024-04-24T23:45:02.114Z,992.25
2024-04-24T23:50:01.999Z,992.25
2024-04-24T23:55:01.995Z,992.23
